Time;durP1;ratioP1;P1;durP2;ratioP2;P2;SDS_P1;SDS_P2;PMS_P1;PMS_P2;Temp;Humidity;BMP_temperature;BMP_pressure;BME280_temperature;BME280_humidity;BME280_pressure;Samples;Min_cycle;Max_cycle;Signal;HPM_P1;HPM_P2
2023/09/06 00:01:07;;;;;;;17.50;10.35;;;;;;;28.03;nan;98012.00;4938121;29;20086;-62
2023/09/06 00:03:55;;;;;;;20.63;10.05;;;;;;;28.07;nan;98012.97;4946323;28;20387;-62
2023/09/06 00:06:27;;;;;;;18.58;11.10;;;;;;;28.04;nan;98013.59;4916141;29;20061;-62
2023/09/06 00:08:56;;;;;;;16.70;10.13;;;;;;;28.00;nan;98014.56;4915168;29;20055;-61
2023/09/06 00:11:29;;;;;;;19.52;11.43;;;;;;;27.99;nan;98016.50;4934760;29;20052;-62
2023/09/06 00:13:58;;;;;;;19.23;11.27;;;;;;;27.98;nan;98022.25;4932697;28;20059;-62
2023/09/06 00:16:28;;;;;;;15.65;10.55;;;;;;;28.01;nan;98024.34;4935081;29;20147;-61
2023/09/06 00:19:01;;;;;;;16.92;11.32;;;;;;;28.01;nan;98019.72;4932071;29;20062;-62
2023/09/06 00:21:32;;;;;;;19.35;10.60;;;;;;;27.96;nan;98021.78;4931483;29;20114;-60
2023/09/06 00:24:01;;;;;;;17.08;10.38;;;;;;;28.00;nan;98020.03;4932382;29;20484;-60
2023/09/06 00:26:40;;;;;;;15.20;10.50;;;;;;;27.97;nan;98023.41;4929030;29;20063;-60
2023/09/06 00:29:09;;;;;;;21.17;11.00;;;;;;;27.95;nan;98025.63;4929847;29;20146;-61
2023/09/06 00:31:39;;;;;;;16.95;10.35;;;;;;;27.95;nan;98025.63;4908324;29;20048;-61
2023/09/06 00:34:08;;;;;;;19.10;12.43;;;;;;;27.97;nan;98039.72;4929030;29;20075;-60
2023/09/06 00:36:37;;;;;;;18.90;11.82;;;;;;;27.96;nan;98043.56;4938046;29;20066;-60
2023/09/06 00:39:08;;;;;;;18.55;11.07;;;;;;;27.98;nan;98049.47;4913047;29;20051;-60
2023/09/06 00:41:57;;;;;;;16.98;11.10;;;;;;;27.93;nan;98044.19;4921761;29;20042;-60
2023/09/06 00:44:28;;;;;;;17.35;11.32;;;;;;;27.89;nan;98041.31;4930409;29;20677;-61
2023/09/06 00:46:59;;;;;;;18.25;10.95;;;;;;;27.87;nan;98045.50;4916794;29;20058;-60
2023/09/06 00:49:29;;;;;;;21.67;10.10;;;;;;;27.90;nan;98040.19;4916756;29;20055;-60
2023/09/06 00:52:10;;;;;;;16.65;9.60;;;;;;;27.91;nan;98043.72;4928668;29;20044;-60
2023/09/06 00:54:39;;;;;;;14.95;9.85;;;;;;;27.88;nan;98041.66;4928434;29;20480;-61
2023/09/06 00:57:09;;;;;;;19.25;10.77;;;;;;;27.86;nan;98049.34;4920763;28;20043;-60
2023/09/06 00:59:40;;;;;;;16.45;10.32;;;;;;;27.90;nan;98056.53;4922612;29;20055;-60
2023/09/06 01:02:09;;;;;;;15.82;10.95;;;;;;;27.92;nan;98050.78;4927457;29;20731;-61
2023/09/06 01:04:39;;;;;;;19.92;10.77;;;;;;;27.96;nan;98059.91;4928754;29;20058;-60
2023/09/06 01:07:11;;;;;;;21.85;10.82;;;;;;;28.02;nan;98056.69;4936297;29;20496;-61
2023/09/06 01:09:41;;;;;;;20.80;11.98;;;;;;;28.06;nan;98065.00;4937476;29;20149;-62
2023/09/06 01:12:13;;;;;;;21.30;11.45;;;;;;;28.05;nan;98063.44;4942117;29;20173;-62
2023/09/06 01:14:42;;;;;;;19.25;10.80;;;;;;;28.08;nan;98065.50;4936835;29;20151;-62
2023/09/06 01:17:17;;;;;;;16.98;12.23;;;;;;;28.10;nan;98066.00;4939903;29;20055;-61
2023/09/06 01:19:54;;;;;;;22.60;12.43;;;;;;;28.17;nan;98073.69;4924320;29;20117;-62
2023/09/06 01:22:41;;;;;;;16.55;10.98;;;;;;;28.22;nan;98074.31;4923947;29;20058;-62
2023/09/06 01:25:12;;;;;;;18.58;11.40;;;;;;;28.27;nan;98076.06;4935388;29;20051;-61
2023/09/06 01:27:41;;;;;;;19.25;11.15;;;;;;;28.43;nan;98086.13;4912564;29;20139;-61
2023/09/06 01:30:11;;;;;;;21.42;11.68;;;;;;;28.43;nan;98086.13;4922762;29;20062;-61
2023/09/06 01:32:41;;;;;;;19.73;12.20;;;;;;;28.47;nan;98089.81;4937269;29;20740;-61
2023/09/06 01:35:10;;;;;;;20.20;10.93;;;;;;;28.39;nan;98085.19;4937899;29;20057;-61
2023/09/06 01:37:39;;;;;;;19.35;11.05;;;;;;;28.48;nan;98094.16;4937614;29;20375;-61
2023/09/06 01:40:16;;;;;;;23.52;11.43;;;;;;;28.59;nan;98087.22;4922399;29;20093;-60
2023/09/06 01:42:46;;;;;;;26.17;10.02;;;;;;;28.76;nan;98094.59;4923175;29;20052;-61
2023/09/06 01:45:17;;;;;;;17.40;10.23;;;;;;;28.83;nan;98088.63;4935634;28;20146;-61
2023/09/06 01:47:49;;;;;;;21.65;11.88;;;;;;;28.85;nan;98092.63;4940213;29;20066;-61
2023/09/06 01:50:19;;;;;;;21.33;10.90;;;;;;;28.85;nan;98091.84;4923584;28;20078;-62
2023/09/06 01:52:49;;;;;;;15.65;9.60;;;;;;;28.90;nan;98091.66;4920232;29;20077;-61
2023/09/06 01:55:20;;;;;;;19.95;9.50;;;;;;;29.01;nan;98093.69;4920967;29;20047;-61
2023/09/06 01:57:49;;;;;;;18.95;9.63;;;;;;;29.11;nan;98097.19;4921382;29;20060;-61
2023/09/06 02:00:22;;;;;;;26.05;11.15;;;;;;;29.17;nan;98096.66;4921124;28;20059;-60
2023/09/06 02:02:53;;;;;;;17.67;10.10;;;;;;;29.23;nan;98091.81;4940635;29;20199;-60
2023/09/06 02:05:44;;;;;;;19.55;9.63;;;;;;;29.28;nan;98114.25;4936039;28;20061;-60
2023/09/06 02:08:14;;;;;;;17.55;9.07;;;;;;;29.33;nan;98108.66;4921393;29;20047;-61
2023/09/06 02:10:43;;;;;;;14.40;8.27;;;;;;;29.62;nan;98115.22;4928118;29;20052;-60
2023/09/06 02:13:15;;;;;;;18.52;8.77;;;;;;;29.93;nan;98121.13;4911000;29;20537;-61
2023/09/06 02:15:45;;;;;;;20.45;9.32;;;;;;;30.04;nan;98127.00;4934369;29;20069;-61
2023/09/06 02:18:17;;;;;;;19.92;10.25;;;;;;;30.21;nan;98124.91;4934390;28;20060;-61
2023/09/06 02:20:49;;;;;;;;;;;;;;;30.44;nan;98127.28;4938534;28;20699;-61
2023/09/06 02:23:18;;;;;;;21.15;9.82;;;;;;;30.45;nan;98124.22;4938582;29;19926;-60
2023/09/06 02:25:50;;;;;;;23.00;10.63;;;;;;;30.51;nan;98133.03;4936527;28;20150;-61
2023/09/06 02:28:20;;;;;;;25.13;11.25;;;;;;;30.63;nan;98135.78;4919239;28;20563;-60
2023/09/06 02:30:50;;;;;;;26.27;10.10;;;;;;;30.62;nan;98134.22;4938506;29;20129;-61
2023/09/06 02:33:20;;;;;;;19.73;10.45;;;;;;;30.67;nan;98136.75;4940698;29;20386;-61
2023/09/06 02:35:49;;;;;;;25.42;10.63;;;;;;;30.77;nan;98139.81;4918717;29;20055;-61
2023/09/06 02:38:18;;;;;;;24.23;11.50;;;;;;;30.78;nan;98143.38;4916194;29;20052;-60
2023/09/06 02:40:51;;;;;;;29.15;11.07;;;;;;;30.70;nan;98144.25;4902902;29;20448;-60
2023/09/06 02:43:22;;;;;;;22.10;11.25;;;;;;;30.75;nan;98144.84;4929373;29;20050;-61
2023/09/06 02:45:54;;;;;;;25.80;12.10;;;;;;;30.94;nan;98138.03;4928336;29;20043;-60
2023/09/06 02:48:24;;;;;;;24.60;13.05;;;;;;;30.90;nan;98142.59;4931745;29;20288;-60
2023/09/06 02:50:53;;;;;;;21.13;11.45;;;;;;;31.01;nan;98138.31;4928791;29;20052;-60
2023/09/06 02:53:22;;;;;;;30.15;12.90;;;;;;;30.98;nan;98139.75;4912314;29;20051;-59
2023/09/06 02:55:53;;;;;;;31.48;14.48;;;;;;;30.90;nan;98143.38;4927755;29;20066;-60
2023/09/06 02:58:26;;;;;;;24.08;14.18;;;;;;;30.95;nan;98145.91;4910809;29;20336;-60
2023/09/06 03:00:58;;;;;;;26.90;15.75;;;;;;;30.86;nan;98141.66;4911434;29;20047;-61
2023/09/06 03:03:27;;;;;;;30.63;16.15;;;;;;;31.04;nan;98149.38;4927364;29;20062;-62
2023/09/06 03:05:59;;;;;;;32.53;17.55;;;;;;;31.14;nan;98146.22;4907081;29;20044;-60
2023/09/06 03:08:29;;;;;;;37.80;21.80;;;;;;;31.05;nan;98144.72;4929408;29;20066;-60
2023/09/06 03:11:00;;;;;;;34.42;21.92;;;;;;;31.10;nan;98153.50;4927014;29;20074;-61
2023/09/06 03:13:57;;;;;;;38.30;22.98;;;;;;;31.17;nan;98153.72;4914256;29;20062;-61
2023/09/06 03:16:27;;;;;;;34.30;20.73;;;;;;;31.28;nan;98170.50;4925731;29;20130;-61
2023/09/06 03:18:56;;;;;;;41.00;25.23;;;;;;;31.14;nan;98162.63;4901920;29;20048;-61
2023/09/06 03:21:26;;;;;;;48.22;31.30;;;;;;;31.23;nan;98170.72;4903452;29;20107;-61
2023/09/06 03:23:59;;;;;;;52.75;34.10;;;;;;;31.35;nan;98172.66;4914349;29;20084;-61
2023/09/06 03:26:29;;;;;;;57.28;32.95;;;;;;;31.40;nan;98178.72;4893399;29;20056;-60
2023/09/06 03:29:00;;;;;;;72.68;40.47;;;;;;;31.20;nan;98168.69;4912836;29;20108;-60
2023/09/06 03:31:33;;;;;;;70.13;42.75;;;;;;;31.36;nan;98174.25;4907470;29;20139;-60
2023/09/06 03:34:03;;;;;;;65.45;42.67;;;;;;;31.54;nan;98183.84;4912915;29;20044;-60
2023/09/06 03:36:35;;;;;;;60.15;41.20;;;;;;;31.53;nan;98182.25;4882894;29;20057;-60
2023/09/06 03:39:06;;;;;;;67.82;44.30;;;;;;;31.70;nan;98176.56;4906904;29;20056;-62
2023/09/06 03:41:35;;;;;;;66.28;44.42;;;;;;;31.78;nan;98183.09;4924500;29;20059;-60
2023/09/06 03:44:04;;;;;;;74.65;50.40;;;;;;;31.96;nan;98184.41;4921741;29;20052;-60
2023/09/06 03:46:37;;;;;;;81.55;53.40;;;;;;;31.98;nan;98193.91;4899689;29;20052;-60
2023/09/06 03:49:08;;;;;;;75.97;54.55;;;;;;;31.99;nan;98195.50;4896453;29;20051;-61
2023/09/06 03:51:37;;;;;;;76.03;53.72;;;;;;;32.10;nan;98195.84;4908645;29;20124;-62
2023/09/06 03:54:09;;;;;;;87.82;56.55;;;;;;;31.97;nan;98200.50;4909292;29;20463;-63
2023/09/06 03:56:39;;;;;;;71.90;53.55;;;;;;;32.02;nan;98199.47;4883272;29;20066;-62
2023/09/06 03:59:09;;;;;;;75.88;50.58;;;;;;;31.83;nan;98202.00;4904394;29;20051;-61
2023/09/06 04:01:38;;;;;;;74.55;51.60;;;;;;;32.06;nan;98203.13;4890800;29;20048;-63
2023/09/06 04:04:08;;;;;;;68.50;49.47;;;;;;;32.13;nan;98206.13;4910527;29;20066;-62
2023/09/06 04:06:37;;;;;;;62.13;41.00;;;;;;;32.27;nan;98206.53;4908729;29;20070;-63
2023/09/06 04:09:12;;;;;;;62.05;39.50;;;;;;;32.22;nan;98204.03;4925162;29;20043;-63
2023/09/06 04:11:41;;;;;;;69.65;40.80;;;;;;;32.23;nan;98215.78;4914014;29;20151;-62
2023/09/06 04:14:11;;;;;;;61.83;38.78;;;;;;;32.15;nan;98214.78;4896085;29;20159;-62
2023/09/06 04:16:43;;;;;;;61.72;37.70;;;;;;;32.38;nan;98223.28;4894061;29;20052;-61
2023/09/06 04:19:14;;;;;;;58.00;41.22;;;;;;;32.28;nan;98221.03;4912170;29;20056;-61
2023/09/06 04:21:48;;;;;;;65.88;42.65;;;;;;;32.61;nan;98220.84;4912718;29;21222;-61
2023/09/06 04:24:20;;;;;;;67.20;44.13;;;;;;;32.62;nan;98225.97;4895961;29;20608;-61
2023/09/06 04:26:49;;;;;;;69.53;46.30;;;;;;;32.73;nan;98218.88;4911900;29;20139;-62
2023/09/06 04:29:19;;;;;;;52.30;34.45;;;;;;;32.71;nan;98212.13;4912267;29;20079;-61
2023/09/06 04:31:48;;;;;;;55.47;32.92;;;;;;;32.88;nan;98212.59;4924126;29;20052;-62
2023/09/06 04:34:18;;;;;;;50.38;34.53;;;;;;;32.90;nan;98215.00;4906144;29;20171;-63
2023/09/06 04:36:47;;;;;;;55.33;35.22;;;;;;;33.10;nan;98219.47;4905389;29;20044;-63
2023/09/06 04:39:17;;;;;;;45.75;32.95;;;;;;;33.12;nan;98213.63;4894229;29;20467;-61
2023/09/06 04:41:46;;;;;;;66.72;39.03;;;;;;;33.38;nan;98216.69;4903162;29;20136;-61
2023/09/06 04:44:24;;;;;;;71.65;44.35;;;;;;;33.24;nan;98222.59;4912822;29;20055;-61
2023/09/06 04:46:54;;;;;;;72.53;41.97;;;;;;;33.52;nan;98224.47;4909205;29;20048;-61
2023/09/06 04:49:24;;;;;;;70.07;43.42;;;;;;;33.90;nan;98221.13;4914880;29;20771;-62
2023/09/06 04:51:55;;;;;;;194.20;52.65;;;;;;;34.05;nan;98225.78;4911892;29;20080;-61
2023/09/06 04:54:25;;;;;;;72.78;39.60;;;;;;;34.20;nan;98219.47;4892497;29;20752;-62
2023/09/06 04:56:54;;;;;;;54.83;39.17;;;;;;;34.26;nan;98218.03;4894349;29;20433;-61
2023/09/06 04:59:24;;;;;;;60.60;41.13;;;;;;;34.56;nan;98212.78;4900258;29;20044;-62
2023/09/06 05:01:53;;;;;;;56.80;36.17;;;;;;;34.74;nan;98216.72;4894815;29;20060;-62
2023/09/06 05:04:23;;;;;;;48.85;33.50;;;;;;;34.59;nan;98210.09;4886442;29;20108;-62
2023/09/06 05:06:54;;;;;;;58.92;35.63;;;;;;;34.83;nan;98216.50;4888952;29;20048;-62
2023/09/06 05:09:40;;;;;;;54.33;33.92;;;;;;;34.82;nan;98217.66;4902450;29;20611;-62
2023/09/06 05:12:11;;;;;;;53.25;35.55;;;;;;;35.14;nan;98208.03;4892175;29;20146;-62
2023/09/06 05:14:40;;;;;;;59.35;36.33;;;;;;;34.81;nan;98216.84;4911311;29;20138;-62
2023/09/06 05:17:09;;;;;;;54.42;35.38;;;;;;;35.23;nan;98216.09;4908082;29;20071;-63
2023/09/06 05:19:39;;;;;;;58.03;32.70;;;;;;;35.50;nan;98209.44;4891518;29;20063;-61
2023/09/06 05:22:08;;;;;;;49.00;27.35;;;;;;;35.42;nan;98208.53;4894107;29;20040;-61
2023/09/06 05:24:37;;;;;;;49.20;25.92;;;;;;;35.99;nan;98214.97;4894961;29;20040;-61
2023/09/06 05:27:07;;;;;;;37.30;24.45;;;;;;;36.00;nan;98208.28;4892269;29;20048;-65
2023/09/06 05:29:37;;;;;;;46.88;29.35;;;;;;;35.93;nan;98199.94;4909641;29;20059;-64
2023/09/06 05:32:07;;;;;;;41.53;26.83;;;;;;;35.98;nan;98202.38;4895653;29;20056;-65
2023/09/06 05:34:36;;;;;;;40.15;24.00;;;;;;;36.09;nan;98203.31;4912700;29;20044;-65
2023/09/06 05:37:08;;;;;;;37.72;23.33;;;;;;;36.16;nan;98200.66;4888436;29;20044;-64
2023/09/06 05:39:38;;;;;;;47.53;22.05;;;;;;;36.04;nan;98193.41;4914243;29;20052;-64
2023/09/06 05:42:27;;;;;;;46.13;25.25;;;;;;;36.32;nan;98193.03;4892037;29;20063;-64
2023/09/06 05:44:57;;;;;;;44.25;24.63;;;;;;;36.26;nan;98197.25;4893224;29;20539;-65
2023/09/06 05:47:27;;;;;;;35.47;22.38;;;;;;;36.10;nan;98191.13;4880595;29;20063;-65
2023/09/06 05:49:57;;;;;;;33.17;21.88;;;;;;;36.65;nan;98189.50;4890087;29;20567;-65
2023/09/06 05:52:28;;;;;;;31.27;17.40;;;;;;;36.14;nan;98182.91;4891476;29;20067;-64
2023/09/06 05:55:01;;;;;;;35.80;18.27;;;;;;;36.37;nan;98184.41;4895013;29;20164;-64
2023/09/06 05:57:32;;;;;;;31.10;18.00;;;;;;;36.57;nan;98175.97;4913639;29;20234;-64
2023/09/06 06:00:12;;;;;;;28.40;17.87;;;;;;;36.20;nan;98179.47;4903201;29;20906;-65
2023/09/06 06:02:46;;;;;;;33.35;17.83;;;;;;;36.29;nan;98170.91;4888345;29;20283;-67
2023/09/06 06:05:18;;;;;;;34.88;19.10;;;;;;;36.52;nan;98176.28;4878318;29;20801;-67
2023/09/06 06:07:48;;;;;;;30.77;16.60;;;;;;;36.15;nan;98167.97;4563002;29;10000170;-64
2023/09/06 06:10:18;;;;;;;30.48;14.60;;;;;;;36.21;nan;98164.50;4882910;29;20047;-65
2023/09/06 06:13:07;;;;;;;37.40;19.05;;;;;;;36.17;nan;98166.41;4902540;29;20059;-66
2023/09/06 06:15:41;;;;;;;39.53;19.42;;;;;;;36.02;nan;98167.38;4889048;29;20088;-66
2023/09/06 06:18:12;;;;;;;34.47;18.70;;;;;;;36.19;nan;98161.31;4904029;29;20540;-66
2023/09/06 06:20:41;;;;;;;30.70;18.25;;;;;;;36.38;nan;98168.66;4904683;29;20051;-65
2023/09/06 06:23:12;;;;;;;35.92;18.58;;;;;;;36.51;nan;98163.69;4898141;29;20063;-65
2023/09/06 06:25:41;;;;;;;33.08;20.17;;;;;;;35.97;nan;98168.50;4902112;29;20056;-65
2023/09/06 06:28:15;;;;;;;35.83;17.90;;;;;;;36.03;nan;98174.44;4900873;29;20048;-64
2023/09/06 06:30:46;;;;;;;27.60;17.13;;;;;;;36.30;nan;98166.97;4905403;29;20764;-64
2023/09/06 06:33:16;;;;;;;27.98;15.65;;;;;;;36.24;nan;98162.97;4902691;29;20074;-64
2023/09/06 06:35:46;;;;;;;27.27;16.38;;;;;;;36.26;nan;98166.91;4914975;29;20072;-64
2023/09/06 06:38:15;;;;;;;33.47;15.82;;;;;;;36.02;nan;98165.41;4910320;29;20485;-64
2023/09/06 06:40:45;;;;;;;24.33;13.77;;;;;;;35.93;nan;98159.38;4916217;29;20056;-65
2023/09/06 06:43:33;;;;;;;30.50;12.20;;;;;;;35.91;nan;98152.63;4906889;29;20094;-66
2023/09/06 06:46:05;;;;;;;25.35;12.13;;;;;;;36.07;nan;98149.72;4892202;29;20573;-64
2023/09/06 06:48:34;;;;;;;21.30;12.38;;;;;;;36.30;nan;98140.19;4909296;29;20079;-63
2023/09/06 06:51:03;;;;;;;20.17;12.25;;;;;;;36.40;nan;98139.50;4911790;29;20481;-68
2023/09/06 06:53:33;;;;;;;22.85;11.70;;;;;;;36.56;nan;98146.78;4902349;29;20160;-67
2023/09/06 06:56:03;;;;;;;23.85;10.73;;;;;;;36.42;nan;98139.94;4901811;29;20796;-64
2023/09/06 06:58:32;;;;;;;25.55;10.38;;;;;;;35.91;nan;98141.59;4886307;29;20059;-64
2023/09/06 07:01:03;;;;;;;21.05;10.57;;;;;;;36.01;nan;98138.22;4895125;29;20063;-66
2023/09/06 07:03:34;;;;;;;16.13;9.98;;;;;;;35.74;nan;98134.69;4908577;29;20062;-65
2023/09/06 07:06:05;;;;;;;24.05;10.25;;;;;;;35.74;nan;98133.88;4902136;29;20224;-66
2023/09/06 07:08:38;;;;;;;19.30;9.52;;;;;;;35.39;nan;98125.84;4901606;29;20123;-65
2023/09/06 07:11:08;;;;;;;20.70;9.85;;;;;;;35.32;nan;98126.53;4886898;29;20060;-65
2023/09/06 07:13:39;;;;;;;25.45;11.52;;;;;;;35.73;nan;98124.03;4901069;29;20072;-64
2023/09/06 07:16:09;;;;;;;15.32;7.78;;;;;;;35.78;nan;98118.19;4901981;29;20047;-65
2023/09/06 07:18:41;;;;;;;13.68;7.57;;;;;;;35.65;nan;98119.59;4903595;29;20075;-64
2023/09/06 07:21:12;;;;;;;16.45;7.80;;;;;;;35.62;nan;98115.59;4904975;29;20095;-66
2023/09/06 07:23:42;;;;;;;17.70;9.15;;;;;;;35.73;nan;98108.28;4904442;29;20124;-68
2023/09/06 07:26:12;;;;;;;18.35;8.45;;;;;;;35.71;nan;98107.09;4898325;29;20193;-64
2023/09/06 07:28:45;;;;;;;14.77;7.60;;;;;;;35.72;nan;98114.97;4883661;29;20047;-64
2023/09/06 07:31:15;;;;;;;13.05;6.13;;;;;;;35.62;nan;98117.53;4902667;29;20043;-63
2023/09/06 07:33:44;;;;;;;15.00;6.03;;;;;;;35.54;nan;98108.34;4902175;29;20055;-63
2023/09/06 07:36:17;;;;;;;17.67;7.30;;;;;;;35.61;nan;98111.25;4880423;29;20151;-64
2023/09/06 07:38:54;;;;;;;11.35;5.80;;;;;;;35.65;nan;98106.59;4884676;29;20048;-64
2023/09/06 07:41:26;;;;;;;12.98;4.95;;;;;;;35.64;nan;98106.94;4902852;29;20048;-64
2023/09/06 07:43:56;;;;;;;13.27;5.22;;;;;;;35.45;nan;98100.38;4894567;29;20159;-63
2023/09/06 07:46:28;;;;;;;14.30;5.47;;;;;;;35.33;nan;98094.28;4904287;29;20062;-64
2023/09/06 07:48:57;;;;;;;12.27;6.37;;;;;;;35.28;nan;98089.88;4891983;29;20122;-63
2023/09/06 07:51:27;;;;;;;9.57;4.85;;;;;;;35.38;nan;98086.50;4900167;29;21210;-64
2023/09/06 07:53:56;;;;;;;11.25;4.75;;;;;;;35.38;nan;98086.50;4886498;29;20396;-64
2023/09/06 07:56:26;;;;;;;14.23;5.13;;;;;;;35.27;nan;98082.81;4888287;29;20127;-65
2023/09/06 07:58:56;;;;;;;9.10;4.78;;;;;;;35.26;nan;98080.41;4905926;29;20172;-64
2023/09/06 08:01:25;;;;;;;11.77;4.57;;;;;;;35.37;nan;98078.59;4910041;29;20048;-65
2023/09/06 08:03:57;;;;;;;10.50;4.90;;;;;;;35.39;nan;98068.00;4891103;29;20044;-65
2023/09/06 08:06:27;;;;;;;15.87;6.10;;;;;;;35.41;nan;98071.97;4904102;29;20063;-65
2023/09/06 08:08:58;;;;;;;12.63;5.18;;;;;;;35.44;nan;98059.44;4904286;29;20058;-66
2023/09/06 08:11:46;;;;;;;13.90;5.43;;;;;;;35.25;nan;98051.28;4906930;29;20074;-65
2023/09/06 08:14:15;;;;;;;12.63;5.68;;;;;;;35.10;nan;98048.25;4907151;29;20064;-64
2023/09/06 08:16:45;;;;;;;13.13;6.78;;;;;;;34.98;nan;98042.16;4917947;29;20052;-65
2023/09/06 08:19:15;;;;;;;12.48;5.55;;;;;;;35.03;nan;98037.16;4896233;29;20164;-64
2023/09/06 08:22:02;;;;;;;16.08;4.85;;;;;;;35.05;nan;98037.56;4911798;29;20691;-65
2023/09/06 08:24:33;;;;;;;11.48;5.18;;;;;;;35.22;nan;98027.25;4915739;29;20135;-65
2023/09/06 08:27:05;;;;;;;10.07;5.57;;;;;;;35.23;nan;98023.31;4911825;29;20058;-64
2023/09/06 08:29:34;;;;;;;15.23;6.28;;;;;;;35.18;nan;98020.88;4905419;29;20060;-64
2023/09/06 08:32:05;;;;;;;14.15;6.70;;;;;;;35.23;nan;98020.56;4909840;29;20540;-64
2023/09/06 08:34:51;;;;;;;16.73;6.38;;;;;;;35.09;nan;98013.66;4910363;29;20075;-64
2023/09/06 08:37:20;;;;;;;13.10;6.22;;;;;;;35.04;nan;98013.19;4897963;29;20058;-64
2023/09/06 08:39:49;;;;;;;13.73;6.15;;;;;;;35.05;nan;98010.03;4906500;29;20422;-64
2023/09/06 08:42:22;;;;;;;19.10;7.10;;;;;;;35.13;nan;98005.44;4922070;29;20844;-65
2023/09/06 08:44:52;;;;;;;22.63;7.63;;;;;;;35.13;nan;98002.69;4904175;29;20545;-64
2023/09/06 08:47:22;;;;;;;13.85;7.15;;;;;;;35.14;nan;98004.28;4920670;29;20058;-64
2023/09/06 08:49:54;;;;;;;15.80;8.35;;;;;;;35.15;nan;97995.66;4910795;28;20059;-64
2023/09/06 08:52:24;;;;;;;20.45;8.05;;;;;;;35.00;nan;97993.06;4900882;29;20055;-64
2023/09/06 08:54:55;;;;;;;20.75;8.15;;;;;;;35.03;nan;97998.63;4918262;29;20095;-64
2023/09/06 08:57:27;;;;;;;22.08;8.85;;;;;;;35.00;nan;97988.34;4920113;29;20056;-64
2023/09/06 08:59:57;;;;;;;17.80;7.75;;;;;;;35.02;nan;97991.50;4917382;29;20695;-64
2023/09/06 09:02:27;;;;;;;15.07;7.53;;;;;;;35.07;nan;97974.69;4909172;29;20055;-65
2023/09/06 09:04:56;;;;;;;20.23;8.73;;;;;;;35.11;nan;97977.47;4918411;29;20075;-65
2023/09/06 09:07:42;;;;;;;20.55;8.93;;;;;;;35.06;nan;97978.59;4924233;29;20122;-63
2023/09/06 09:10:13;;;;;;;18.60;8.30;;;;;;;34.96;nan;97967.44;4905417;29;20437;-65
2023/09/06 09:12:43;;;;;;;17.55;8.20;;;;;;;35.00;nan;97968.28;4901254;29;20463;-65
2023/09/06 09:15:12;;;;;;;18.60;8.73;;;;;;;34.89;nan;97962.59;4918935;29;20059;-64
2023/09/06 09:17:51;;;;;;;23.77;8.32;;;;;;;34.89;nan;97962.59;4905905;29;20556;-65
2023/09/06 09:20:31;;;;;;;18.38;8.73;;;;;;;34.82;nan;97954.25;4910354;29;20040;-64
2023/09/06 09:23:03;;;;;;;23.23;10.65;;;;;;;34.86;nan;97951.56;4908098;29;20052;-64
2023/09/06 09:25:33;;;;;;;23.80;9.10;;;;;;;34.76;nan;97944.72;4898173;29;20052;-65
2023/09/06 09:28:04;;;;;;;16.85;8.88;;;;;;;34.80;nan;97951.06;4910931;29;20078;-66
2023/09/06 09:30:37;;;;;;;18.85;8.80;;;;;;;34.87;nan;97945.69;4914961;29;20051;-66
2023/09/06 09:33:07;;;;;;;20.08;8.00;;;;;;;34.94;nan;97940.28;4894725;29;20043;-65
2023/09/06 09:35:37;;;;;;;14.88;8.05;;;;;;;34.91;nan;97938.28;4910151;29;20055;-66
2023/09/06 09:38:13;;;;;;;18.13;7.72;;;;;;;34.94;nan;97931.22;4909754;29;20099;-65
2023/09/06 09:40:42;;;;;;;15.65;7.93;;;;;;;34.93;nan;97932.38;4912500;29;20052;-65
2023/09/06 09:43:17;;;;;;;17.75;7.70;;;;;;;34.92;nan;97930.81;4914047;29;20051;-63
2023/09/06 09:45:47;;;;;;;15.70;7.85;;;;;;;34.89;nan;97926.03;4914776;29;20056;-66
2023/09/06 09:48:17;;;;;;;18.23;7.90;;;;;;;34.71;nan;97923.00;4909012;29;20052;-66
2023/09/06 09:50:49;;;;;;;16.27;7.70;;;;;;;34.83;nan;97925.56;4915637;29;20044;-65
2023/09/06 09:53:24;;;;;;;20.33;7.72;;;;;;;34.90;nan;97917.41;4911131;29;20052;-64
2023/09/06 09:55:56;;;;;;;19.60;8.88;;;;;;;34.76;nan;97916.41;4911015;29;20043;-64
2023/09/06 09:58:31;;;;;;;20.48;9.35;;;;;;;34.78;nan;97911.34;4912552;29;20055;-64
2023/09/06 10:01:05;;;;;;;15.73;7.63;;;;;;;34.78;nan;97908.59;4896698;29;20536;-64
2023/09/06 10:03:39;;;;;;;17.77;8.02;;;;;;;34.75;nan;97904.59;4223371;29;10000714;-64
2023/09/06 10:06:11;;;;;;;18.92;7.20;;;;;;;34.65;nan;97894.22;4910825;29;20059;-65
2023/09/06 10:08:45;;;;;;;18.48;7.20;;;;;;;34.53;nan;97894.41;4911395;29;20127;-65
2023/09/06 10:11:19;;;;;;;15.52;7.93;;;;;;;34.49;nan;97891.59;4913106;29;20048;-63
2023/09/06 10:13:50;;;;;;;18.38;9.30;;;;;;;34.57;nan;97892.50;4896274;29;20051;-64
2023/09/06 10:16:21;;;;;;;18.48;8.70;;;;;;;34.62;nan;97887.47;4895040;29;20397;-64
2023/09/06 10:18:51;;;;;;;17.73;7.68;;;;;;;34.68;nan;97886.03;4908808;29;20051;-65
2023/09/06 10:21:20;;;;;;;16.70;7.90;;;;;;;34.63;nan;97872.56;4899312;29;20624;-64
2023/09/06 10:23:50;;;;;;;18.67;8.10;;;;;;;34.66;nan;97873.81;4902377;28;20067;-66
2023/09/06 10:26:36;;;;;;;16.50;7.80;;;;;;;34.66;nan;97873.81;4925594;29;20047;-65
2023/09/06 10:29:11;;;;;;;22.63;7.53;;;;;;;34.58;nan;97869.34;4913313;29;20154;-64
2023/09/06 10:31:52;;;;;;;22.40;7.75;;;;;;;34.56;nan;97869.72;4925953;29;20054;-63
2023/09/06 10:34:21;;;;;;;19.13;9.57;;;;;;;34.56;nan;97869.72;4925999;29;22580;-63
2023/09/06 10:37:03;;;;;;;30.63;10.88;;;;;;;34.53;nan;97867.69;4912913;29;20202;-65
2023/09/06 10:39:32;;;;;;;14.43;8.73;;;;;;;34.58;nan;97855.59;4923834;29;20142;-64
2023/09/06 10:42:13;;;;;;;15.77;8.40;;;;;;;34.58;nan;97859.13;4923832;29;20099;-64
2023/09/06 10:44:55;;;;;;;19.40;9.50;;;;;;;34.54;nan;97855.53;4919569;29;20075;-62
2023/09/06 10:47:33;;;;;;;19.42;9.75;;;;;;;34.46;nan;97855.81;4917659;29;20051;-63
2023/09/06 10:50:21;;;;;;;19.33;9.68;;;;;;;34.42;nan;97854.97;4912002;29;20149;-64
2023/09/06 10:52:53;;;;;;;14.00;8.57;;;;;;;34.38;nan;97852.16;4918692;29;20051;-63
2023/09/06 10:55:27;;;;;;;14.50;7.47;;;;;;;34.36;nan;97840.72;4920176;29;20552;-65
2023/09/06 10:57:59;;;;;;;17.60;9.45;;;;;;;34.34;nan;97843.06;4917361;29;20547;-63
2023/09/06 11:00:34;;;;;;;13.55;7.82;;;;;;;34.32;nan;97841.81;4919894;29;20051;-63
2023/09/06 11:03:10;;;;;;;19.58;8.98;;;;;;;34.28;nan;97839.03;4918767;29;20062;-64
2023/09/06 11:05:50;;;;;;;16.83;9.48;;;;;;;34.23;nan;97842.09;4917010;29;20061;-63
2023/09/06 11:08:38;;;;;;;20.58;8.70;;;;;;;34.22;nan;97837.75;4916295;29;20059;-63
2023/09/06 11:11:10;;;;;;;18.90;10.15;;;;;;;34.19;nan;97827.50;4918878;29;20059;-63
2023/09/06 11:13:44;;;;;;;19.52;10.05;;;;;;;34.14;nan;97831.31;4919060;29;20050;-62
2023/09/06 11:16:15;;;;;;;29.00;9.65;;;;;;;34.11;nan;97831.25;4918048;29;20051;-63
2023/09/06 11:18:51;;;;;;;22.10;8.77;;;;;;;34.15;nan;97832.13;4917589;29;20155;-64
2023/09/06 11:21:25;;;;;;;16.98;9.48;;;;;;;34.15;nan;97832.91;4904584;29;20532;-64
2023/09/06 11:23:58;;;;;;;17.23;9.07;;;;;;;34.12;nan;97817.13;4922859;29;20052;-62
2023/09/06 11:26:37;;;;;;;16.58;8.98;;;;;;;34.07;nan;97824.91;4920668;29;20047;-62
2023/09/06 11:29:08;;;;;;;21.75;9.70;;;;;;;34.01;nan;97829.94;4920920;29;20139;-62
2023/09/06 11:31:40;;;;;;;23.30;9.20;;;;;;;34.03;nan;97826.81;4923100;29;20055;-65
2023/09/06 11:34:13;;;;;;;21.80;9.20;;;;;;;33.99;nan;97823.22;4922663;29;20043;-64
2023/09/06 11:36:43;;;;;;;18.73;8.50;;;;;;;33.90;nan;97822.66;4921841;29;20052;-65
2023/09/06 11:39:18;;;;;;;19.55;8.93;;;;;;;33.84;nan;97825.72;4921806;29;20055;-67
2023/09/06 11:41:54;;;;;;;15.88;8.07;;;;;;;33.65;nan;97819.44;4924481;29;20051;-64
2023/09/06 11:44:24;;;;;;;12.95;7.82;;;;;;;33.32;nan;97820.81;4916039;29;20067;-66
2023/09/06 11:46:53;;;;;;;14.55;8.55;;;;;;;32.83;nan;97825.28;4921699;29;20055;-67
2023/09/06 11:49:25;;;;;;;19.80;8.70;;;;;;;32.70;nan;97819.13;4919888;29;20678;-65
2023/09/06 11:51:57;;;;;;;22.95;8.15;;;;;;;32.75;nan;97815.31;4918884;28;20115;-64
2023/09/06 11:54:31;;;;;;;21.23;8.70;;;;;;;32.78;nan;97815.38;4926594;29;20103;-64
2023/09/06 11:57:04;;;;;;;19.38;8.27;;;;;;;32.82;nan;97809.97;4925503;29;20067;-64
2023/09/06 11:59:34;;;;;;;21.85;9.32;;;;;;;32.88;nan;97814.00;4920550;29;20076;-64